This is the latest recevied weather packets stored in our database for station/object IZ2XCK-13. If no packets are shown the sender has not sent any weather packets the latest 10 day(s).
| Time | Temp. | Humidity | Pressure | Rain* | Wind** | Luminosity | Snow |
|---|---|---|---|---|---|---|---|
| 1777459481 | 14.44° C | 78% | 1019.3 hPa | - | - | - | - |
| 1777458281 | 15° C | 75% | 1019.3 hPa | - | - | - | - |
| 1777457081 | 15° C | 77% | 1019.3 hPa | - | - | - | - |
| 1777455880 | 14.44° C | 78% | 1019.3 hPa | - | - | - | - |
| 1777454680 | 15° C | 79% | 1019.3 hPa | - | - | - | - |
| 1777453480 | 14.44° C | 83% | 1019.2 hPa | - | - | - | - |
| 1777452279 | 13.89° C | 85% | 1019.1 hPa | - | - | - | - |
| 1777451079 | 14.44° C | 83% | 1019 hPa | - | - | - | - |
| 1777449879 | 13.89° C | 80% | 1019 hPa | - | - | - | - |
| 1777448678 | 14.44° C | 75% | 1018.8 hPa | - | - | - | - |
| 1777447478 | 14.44° C | 77% | 1018.9 hPa | - | - | - | - |
| 1777446278 | 13.33° C | 80% | 1018.7 hPa | - | - | - | - |
| 1777445078 | 13.89° C | 80% | 1018.7 hPa | - | - | - | - |
| 1777443877 | 13.89° C | 77% | 1018.6 hPa | - | - | - | - |
| 1777442677 | 13.33° C | 81% | 1018.6 hPa | - | - | - | - |
| 1777441477 | 13.89° C | 80% | 1018.5 hPa | - | - | - | - |
| 1777440276 | 13.33° C | 82% | 1018.5 hPa | - | - | - | - |
| 1777439076 | 13.89° C | 80% | 1018.4 hPa | - | - | - | - |
| 1777437876 | 13.89° C | 80% | 1018.3 hPa | - | - | - | - |
| 1777436675 | 13.89° C | 84% | 1018.3 hPa | - | - | - | - |
| 1777435475 | 13.89° C | 83% | 1018.3 hPa | - | - | - | - |
| 1777434275 | 13.89° C | 85% | 1018.3 hPa | - | - | - | - |
| 1777433074 | 14.44° C | 83% | 1018.5 hPa | - | - | - | - |
| 1777431874 | 14.44° C | 83% | 1018.6 hPa | - | - | - | - |
| 1777430674 | 13.89° C | 83% | 1018.5 hPa | - | - | - | - |
* Rain since midnight (hover to see other rain measurements)
** Current wind speed in m/s (hover to see current wind gust speed)